sensor_id;sensor_type;location;lat;lon;timestamp;P1;durP1;ratioP1;P2;durP2;ratioP2
24547;SDS011;12713;51.624;4.924;2023-11-21T00:01:42;26.38;;;14.63;;
24547;SDS011;12713;51.624;4.924;2023-11-21T00:04:11;28.02;;;16.00;;
24547;SDS011;12713;51.624;4.924;2023-11-21T00:06:46;26.58;;;15.25;;
24547;SDS011;12713;51.624;4.924;2023-11-21T00:09:12;28.70;;;13.50;;
24547;SDS011;12713;51.624;4.924;2023-11-21T00:11:43;32.10;;;17.70;;
24547;SDS011;12713;51.624;4.924;2023-11-21T00:14:13;34.38;;;18.33;;
24547;SDS011;12713;51.624;4.924;2023-11-21T00:16:46;26.65;;;14.98;;
24547;SDS011;12713;51.624;4.924;2023-11-21T00:19:14;27.70;;;15.68;;
24547;SDS011;12713;51.624;4.924;2023-11-21T00:21:42;25.80;;;15.98;;
24547;SDS011;12713;51.624;4.924;2023-11-21T00:24:10;28.50;;;15.20;;
24547;SDS011;12713;51.624;4.924;2023-11-21T00:26:41;35.85;;;16.10;;
24547;SDS011;12713;51.624;4.924;2023-11-21T00:29:10;32.13;;;15.85;;
24547;SDS011;12713;51.624;4.924;2023-11-21T00:34:35;23.85;;;14.85;;
24547;SDS011;12713;51.624;4.924;2023-11-21T00:37:25;24.10;;;15.70;;
24547;SDS011;12713;51.624;4.924;2023-11-21T00:39:51;28.75;;;16.02;;
24547;SDS011;12713;51.624;4.924;2023-11-21T00:42:41;25.92;;;15.90;;
24547;SDS011;12713;51.624;4.924;2023-11-21T00:47:54;38.03;;;21.55;;
24547;SDS011;12713;51.624;4.924;2023-11-21T00:50:26;26.15;;;16.23;;
24547;SDS011;12713;51.624;4.924;2023-11-21T00:52:54;31.73;;;19.00;;
24547;SDS011;12713;51.624;4.924;2023-11-21T00:55:21;48.00;;;22.15;;
24547;SDS011;12713;51.624;4.924;2023-11-21T00:57:47;108.15;;;24.75;;
24547;SDS011;12713;51.624;4.924;2023-11-21T01:00:16;74.30;;;22.45;;
24547;SDS011;12713;51.624;4.924;2023-11-21T01:02:45;54.42;;;21.83;;
24547;SDS011;12713;51.624;4.924;2023-11-21T01:05:12;34.92;;;19.63;;
24547;SDS011;12713;51.624;4.924;2023-11-21T01:07:42;29.90;;;18.30;;
24547;SDS011;12713;51.624;4.924;2023-11-21T01:10:11;31.00;;;18.80;;
24547;SDS011;12713;51.624;4.924;2023-11-21T01:12:37;74.97;;;22.33;;
24547;SDS011;12713;51.624;4.924;2023-11-21T01:15:07;41.97;;;20.48;;
24547;SDS011;12713;51.624;4.924;2023-11-21T01:17:37;55.00;;;20.00;;
24547;SDS011;12713;51.624;4.924;2023-11-21T01:20:08;54.40;;;20.83;;
24547;SDS011;12713;51.624;4.924;2023-11-21T01:22:41;31.25;;;17.25;;
24547;SDS011;12713;51.624;4.924;2023-11-21T01:25:08;35.72;;;18.00;;
24547;SDS011;12713;51.624;4.924;2023-11-21T01:27:36;41.13;;;18.60;;
24547;SDS011;12713;51.624;4.924;2023-11-21T01:33:12;41.33;;;18.70;;
24547;SDS011;12713;51.624;4.924;2023-11-21T01:35:41;45.40;;;18.00;;
24547;SDS011;12713;51.624;4.924;2023-11-21T01:38:09;43.75;;;18.65;;
24547;SDS011;12713;51.624;4.924;2023-11-21T01:40:43;37.83;;;17.60;;
24547;SDS011;12713;51.624;4.924;2023-11-21T01:43:09;33.95;;;16.55;;
24547;SDS011;12713;51.624;4.924;2023-11-21T01:45:36;33.30;;;17.45;;
24547;SDS011;12713;51.624;4.924;2023-11-21T01:48:11;41.45;;;18.27;;
24547;SDS011;12713;51.624;4.924;2023-11-21T01:50:40;32.10;;;18.63;;
24547;SDS011;12713;51.624;4.924;2023-11-21T01:53:06;33.78;;;17.73;;
24547;SDS011;12713;51.624;4.924;2023-11-21T01:55:32;25.33;;;16.80;;
24547;SDS011;12713;51.624;4.924;2023-11-21T01:58:01;24.75;;;16.50;;
24547;SDS011;12713;51.624;4.924;2023-11-21T02:00:40;25.20;;;16.67;;
24547;SDS011;12713;51.624;4.924;2023-11-21T02:03:13;23.42;;;16.60;;
24547;SDS011;12713;51.624;4.924;2023-11-21T02:05:40;21.40;;;15.40;;
24547;SDS011;12713;51.624;4.924;2023-11-21T02:08:08;25.77;;;16.95;;
24547;SDS011;12713;51.624;4.924;2023-11-21T02:10:42;23.23;;;15.55;;
24547;SDS011;12713;51.624;4.924;2023-11-21T02:13:08;23.95;;;16.95;;
24547;SDS011;12713;51.624;4.924;2023-11-21T02:15:45;23.85;;;17.58;;
24547;SDS011;12713;51.624;4.924;2023-11-21T02:21:08;23.98;;;16.02;;
24547;SDS011;12713;51.624;4.924;2023-11-21T02:23:35;23.38;;;16.08;;
24547;SDS011;12713;51.624;4.924;2023-11-21T02:26:03;22.80;;;15.60;;
24547;SDS011;12713;51.624;4.924;2023-11-21T02:28:42;27.15;;;18.35;;
24547;SDS011;12713;51.624;4.924;2023-11-21T02:31:11;22.77;;;14.73;;
24547;SDS011;12713;51.624;4.924;2023-11-21T02:33:55;23.60;;;15.20;;
24547;SDS011;12713;51.624;4.924;2023-11-21T02:36:21;23.95;;;16.83;;
24547;SDS011;12713;51.624;4.924;2023-11-21T02:38:50;26.02;;;17.33;;
24547;SDS011;12713;51.624;4.924;2023-11-21T02:41:20;21.88;;;16.02;;
24547;SDS011;12713;51.624;4.924;2023-11-21T02:43:46;24.45;;;16.38;;
24547;SDS011;12713;51.624;4.924;2023-11-21T02:46:38;26.38;;;17.60;;
24547;SDS011;12713;51.624;4.924;2023-11-21T02:49:18;25.38;;;17.33;;
24547;SDS011;12713;51.624;4.924;2023-11-21T02:51:57;26.05;;;16.45;;
24547;SDS011;12713;51.624;4.924;2023-11-21T02:54:28;30.63;;;18.20;;
24547;SDS011;12713;51.624;4.924;2023-11-21T02:57:17;26.17;;;17.23;;
24547;SDS011;12713;51.624;4.924;2023-11-21T02:59:46;28.77;;;17.58;;
24547;SDS011;12713;51.624;4.924;2023-11-21T03:02:12;24.25;;;15.80;;
24547;SDS011;12713;51.624;4.924;2023-11-21T03:04:40;23.80;;;17.23;;
24547;SDS011;12713;51.624;4.924;2023-11-21T03:07:12;21.27;;;15.10;;
24547;SDS011;12713;51.624;4.924;2023-11-21T03:09:59;26.90;;;17.98;;
24547;SDS011;12713;51.624;4.924;2023-11-21T03:12:46;23.08;;;15.07;;
24547;SDS011;12713;51.624;4.924;2023-11-21T03:15:51;25.67;;;17.38;;
24547;SDS011;12713;51.624;4.924;2023-11-21T03:18:40;27.75;;;16.42;;
24547;SDS011;12713;51.624;4.924;2023-11-21T03:21:06;20.98;;;14.75;;
24547;SDS011;12713;51.624;4.924;2023-11-21T03:23:36;22.45;;;15.05;;
24547;SDS011;12713;51.624;4.924;2023-11-21T03:26:05;22.52;;;15.43;;
24547;SDS011;12713;51.624;4.924;2023-11-21T03:28:33;21.58;;;14.73;;
24547;SDS011;12713;51.624;4.924;2023-11-21T03:31:02;25.73;;;17.00;;
24547;SDS011;12713;51.624;4.924;2023-11-21T03:33:31;28.23;;;16.25;;
24547;SDS011;12713;51.624;4.924;2023-11-21T03:36:03;18.65;;;13.65;;
24547;SDS011;12713;51.624;4.924;2023-11-21T03:41:23;24.75;;;15.70;;
24547;SDS011;12713;51.624;4.924;2023-11-21T03:43:51;24.33;;;16.75;;
24547;SDS011;12713;51.624;4.924;2023-11-21T03:46:17;22.48;;;15.32;;
24547;SDS011;12713;51.624;4.924;2023-11-21T03:48:46;24.85;;;16.70;;
24547;SDS011;12713;51.624;4.924;2023-11-21T03:51:12;34.15;;;18.95;;
24547;SDS011;12713;51.624;4.924;2023-11-21T03:53:39;28.55;;;18.70;;
24547;SDS011;12713;51.624;4.924;2023-11-21T03:56:14;23.35;;;16.42;;
24547;SDS011;12713;51.624;4.924;2023-11-21T03:58:43;19.67;;;14.45;;
24547;SDS011;12713;51.624;4.924;2023-11-21T04:01:09;28.75;;;18.38;;
24547;SDS011;12713;51.624;4.924;2023-11-21T04:03:35;26.63;;;17.08;;
24547;SDS011;12713;51.624;4.924;2023-11-21T04:06:01;23.00;;;14.88;;
24547;SDS011;12713;51.624;4.924;2023-11-21T04:08:31;20.95;;;14.63;;
24547;SDS011;12713;51.624;4.924;2023-11-21T04:11:08;22.25;;;16.00;;
24547;SDS011;12713;51.624;4.924;2023-11-21T04:13:48;24.10;;;15.85;;
24547;SDS011;12713;51.624;4.924;2023-11-21T04:16:17;44.22;;;20.17;;
24547;SDS011;12713;51.624;4.924;2023-11-21T04:18:56;24.63;;;15.63;;
24547;SDS011;12713;51.624;4.924;2023-11-21T04:21:23;27.83;;;16.17;;
24547;SDS011;12713;51.624;4.924;2023-11-21T04:23:52;34.72;;;19.02;;
24547;SDS011;12713;51.624;4.924;2023-11-21T04:26:18;30.02;;;17.17;;
24547;SDS011;12713;51.624;4.924;2023-11-21T04:28:44;28.48;;;17.23;;
24547;SDS011;12713;51.624;4.924;2023-11-21T04:31:18;38.60;;;21.65;;
24547;SDS011;12713;51.624;4.924;2023-11-21T04:33:50;33.25;;;18.50;;
24547;SDS011;12713;51.624;4.924;2023-11-21T04:36:19;37.38;;;20.83;;
24547;SDS011;12713;51.624;4.924;2023-11-21T04:38:45;30.88;;;17.98;;
24547;SDS011;12713;51.624;4.924;2023-11-21T04:41:11;26.05;;;14.65;;
24547;SDS011;12713;51.624;4.924;2023-11-21T04:43:43;28.45;;;17.65;;
24547;SDS011;12713;51.624;4.924;2023-11-21T04:46:15;32.10;;;19.50;;
24547;SDS011;12713;51.624;4.924;2023-11-21T04:48:41;33.25;;;19.13;;
24547;SDS011;12713;51.624;4.924;2023-11-21T04:51:27;28.50;;;17.15;;
24547;SDS011;12713;51.624;4.924;2023-11-21T04:54:09;42.45;;;23.98;;
24547;SDS011;12713;51.624;4.924;2023-11-21T04:56:35;40.13;;;22.00;;
24547;SDS011;12713;51.624;4.924;2023-11-21T04:59:09;40.15;;;19.88;;
24547;SDS011;12713;51.624;4.924;2023-11-21T05:01:44;31.58;;;18.92;;
24547;SDS011;12713;51.624;4.924;2023-11-21T05:04:10;43.45;;;22.73;;
24547;SDS011;12713;51.624;4.924;2023-11-21T05:06:36;44.58;;;24.10;;
24547;SDS011;12713;51.624;4.924;2023-11-21T05:09:06;41.78;;;22.05;;
24547;SDS011;12713;51.624;4.924;2023-11-21T05:11:40;29.23;;;16.75;;
24547;SDS011;12713;51.624;4.924;2023-11-21T05:14:06;30.95;;;19.40;;
24547;SDS011;12713;51.624;4.924;2023-11-21T05:16:34;43.80;;;23.25;;
24547;SDS011;12713;51.624;4.924;2023-11-21T05:19:01;29.48;;;16.98;;
24547;SDS011;12713;51.624;4.924;2023-11-21T05:21:49;34.70;;;19.50;;
24547;SDS011;12713;51.624;4.924;2023-11-21T05:24:15;32.67;;;18.63;;
24547;SDS011;12713;51.624;4.924;2023-11-21T05:26:41;28.83;;;17.88;;
24547;SDS011;12713;51.624;4.924;2023-11-21T05:29:15;37.53;;;18.90;;
24547;SDS011;12713;51.624;4.924;2023-11-21T05:31:44;29.20;;;17.13;;
24547;SDS011;12713;51.624;4.924;2023-11-21T05:34:10;28.67;;;17.40;;
24547;SDS011;12713;51.624;4.924;2023-11-21T05:36:36;31.70;;;17.80;;
24547;SDS011;12713;51.624;4.924;2023-11-21T05:39:07;33.42;;;18.13;;
24547;SDS011;12713;51.624;4.924;2023-11-21T05:41:35;44.25;;;21.45;;
24547;SDS011;12713;51.624;4.924;2023-11-21T05:44:11;30.58;;;16.65;;
24547;SDS011;12713;51.624;4.924;2023-11-21T05:46:39;24.95;;;15.35;;
24547;SDS011;12713;51.624;4.924;2023-11-21T05:49:08;38.05;;;19.40;;
24547;SDS011;12713;51.624;4.924;2023-11-21T05:51:44;47.80;;;21.70;;
24547;SDS011;12713;51.624;4.924;2023-11-21T05:54:10;34.00;;;19.90;;
24547;SDS011;12713;51.624;4.924;2023-11-21T05:57:08;38.35;;;19.73;;
24547;SDS011;12713;51.624;4.924;2023-11-21T05:59:37;33.90;;;19.73;;
24547;SDS011;12713;51.624;4.924;2023-11-21T06:02:09;44.92;;;21.73;;
24547;SDS011;12713;51.624;4.924;2023-11-21T06:04:38;43.35;;;21.73;;
24547;SDS011;12713;51.624;4.924;2023-11-21T06:07:04;34.88;;;18.45;;
24547;SDS011;12713;51.624;4.924;2023-11-21T06:09:37;36.03;;;18.50;;
24547;SDS011;12713;51.624;4.924;2023-11-21T06:12:06;38.58;;;19.13;;
24547;SDS011;12713;51.624;4.924;2023-11-21T06:14:35;42.38;;;20.85;;
24547;SDS011;12713;51.624;4.924;2023-11-21T06:17:03;49.70;;;22.10;;
24547;SDS011;12713;51.624;4.924;2023-11-21T06:19:29;38.53;;;20.30;;
24547;SDS011;12713;51.624;4.924;2023-11-21T06:21:59;33.20;;;17.90;;
24547;SDS011;12713;51.624;4.924;2023-11-21T06:24:26;36.70;;;19.45;;
24547;SDS011;12713;51.624;4.924;2023-11-21T06:26:53;44.50;;;23.25;;
24547;SDS011;12713;51.624;4.924;2023-11-21T06:29:22;40.38;;;20.27;;
24547;SDS011;12713;51.624;4.924;2023-11-21T06:31:49;37.60;;;19.98;;
24547;SDS011;12713;51.624;4.924;2023-11-21T06:34:15;42.28;;;19.50;;
24547;SDS011;12713;51.624;4.924;2023-11-21T06:36:41;32.38;;;16.40;;
24547;SDS011;12713;51.624;4.924;2023-11-21T06:39:10;37.30;;;19.60;;
24547;SDS011;12713;51.624;4.924;2023-11-21T06:41:36;36.28;;;19.55;;
24547;SDS011;12713;51.624;4.924;2023-11-21T06:44:08;34.15;;;17.58;;
24547;SDS011;12713;51.624;4.924;2023-11-21T06:46:37;43.85;;;21.00;;
24547;SDS011;12713;51.624;4.924;2023-11-21T06:49:09;52.10;;;24.23;;
24547;SDS011;12713;51.624;4.924;2023-11-21T06:51:47;44.45;;;20.60;;
24547;SDS011;12713;51.624;4.924;2023-11-21T06:54:16;51.63;;;23.17;;
24547;SDS011;12713;51.624;4.924;2023-11-21T06:56:44;41.63;;;21.45;;
24547;SDS011;12713;51.624;4.924;2023-11-21T06:59:10;60.85;;;23.25;;
24547;SDS011;12713;51.624;4.924;2023-11-21T07:01:39;45.55;;;22.27;;
24547;SDS011;12713;51.624;4.924;2023-11-21T07:04:06;45.55;;;22.42;;
24547;SDS011;12713;51.624;4.924;2023-11-21T07:06:34;54.03;;;24.00;;
24547;SDS011;12713;51.624;4.924;2023-11-21T07:09:00;47.75;;;22.23;;
24547;SDS011;12713;51.624;4.924;2023-11-21T07:11:35;40.03;;;20.10;;
24547;SDS011;12713;51.624;4.924;2023-11-21T07:14:01;40.92;;;20.65;;
24547;SDS011;12713;51.624;4.924;2023-11-21T07:16:36;38.85;;;19.40;;
24547;SDS011;12713;51.624;4.924;2023-11-21T07:19:05;42.17;;;21.13;;
24547;SDS011;12713;51.624;4.924;2023-11-21T07:21:36;53.15;;;21.55;;
24547;SDS011;12713;51.624;4.924;2023-11-21T07:24:06;43.88;;;20.98;;
24547;SDS011;12713;51.624;4.924;2023-11-21T07:26:35;46.85;;;21.52;;
24547;SDS011;12713;51.624;4.924;2023-11-21T07:29:04;42.08;;;20.55;;
24547;SDS011;12713;51.624;4.924;2023-11-21T07:31:31;44.03;;;19.23;;
24547;SDS011;12713;51.624;4.924;2023-11-21T07:33:59;47.95;;;21.42;;
24547;SDS011;12713;51.624;4.924;2023-11-21T07:36:26;46.75;;;21.08;;
24547;SDS011;12713;51.624;4.924;2023-11-21T07:38:52;48.28;;;21.40;;
24547;SDS011;12713;51.624;4.924;2023-11-21T07:41:18;57.70;;;22.77;;
24547;SDS011;12713;51.624;4.924;2023-11-21T07:43:44;57.92;;;23.42;;
24547;SDS011;12713;51.624;4.924;2023-11-21T07:46:11;48.80;;;22.98;;
24547;SDS011;12713;51.624;4.924;2023-11-21T07:48:41;56.92;;;23.58;;
24547;SDS011;12713;51.624;4.924;2023-11-21T07:51:07;58.33;;;23.35;;
24547;SDS011;12713;51.624;4.924;2023-11-21T07:53:34;54.08;;;23.88;;
24547;SDS011;12713;51.624;4.924;2023-11-21T07:56:07;62.42;;;23.70;;
24547;SDS011;12713;51.624;4.924;2023-11-21T07:58:35;54.38;;;23.65;;
24547;SDS011;12713;51.624;4.924;2023-11-21T08:01:02;48.15;;;22.40;;
24547;SDS011;12713;51.624;4.924;2023-11-21T08:03:31;61.70;;;22.55;;
24547;SDS011;12713;51.624;4.924;2023-11-21T08:05:58;49.25;;;21.13;;
24547;SDS011;12713;51.624;4.924;2023-11-21T08:08:24;55.30;;;21.90;;
24547;SDS011;12713;51.624;4.924;2023-11-21T08:10:51;46.35;;;21.45;;
24547;SDS011;12713;51.624;4.924;2023-11-21T08:13:24;48.83;;;21.55;;
24547;SDS011;12713;51.624;4.924;2023-11-21T08:15:50;57.78;;;22.80;;
24547;SDS011;12713;51.624;4.924;2023-11-21T08:18:19;60.97;;;24.67;;
24547;SDS011;12713;51.624;4.924;2023-11-21T08:20:45;63.42;;;23.90;;
24547;SDS011;12713;51.624;4.924;2023-11-21T08:23:17;58.25;;;23.67;;
24547;SDS011;12713;51.624;4.924;2023-11-21T08:25:43;60.17;;;23.52;;
24547;SDS011;12713;51.624;4.924;2023-11-21T08:28:10;61.63;;;22.92;;
24547;SDS011;12713;51.624;4.924;2023-11-21T08:30:36;56.63;;;23.35;;
24547;SDS011;12713;51.624;4.924;2023-11-21T08:33:02;63.05;;;23.20;;
24547;SDS011;12713;51.624;4.924;2023-11-21T08:35:29;64.30;;;24.02;;
24547;SDS011;12713;51.624;4.924;2023-11-21T08:37:55;60.10;;;22.55;;
24547;SDS011;12713;51.624;4.924;2023-11-21T08:40:21;56.80;;;23.02;;
24547;SDS011;12713;51.624;4.924;2023-11-21T08:42:47;63.22;;;22.58;;
24547;SDS011;12713;51.624;4.924;2023-11-21T08:45:17;54.80;;;21.85;;
24547;SDS011;12713;51.624;4.924;2023-11-21T08:47:43;49.63;;;20.92;;
24547;SDS011;12713;51.624;4.924;2023-11-21T08:50:09;54.35;;;20.92;;
24547;SDS011;12713;51.624;4.924;2023-11-21T08:52:37;60.85;;;21.45;;
24547;SDS011;12713;51.624;4.924;2023-11-21T08:55:04;51.90;;;20.15;;
24547;SDS011;12713;51.624;4.924;2023-11-21T08:57:36;53.97;;;20.02;;
24547;SDS011;12713;51.624;4.924;2023-11-21T09:00:13;53.38;;;20.23;;
24547;SDS011;12713;51.624;4.924;2023-11-21T09:02:42;56.15;;;19.83;;
24547;SDS011;12713;51.624;4.924;2023-11-21T09:05:12;43.55;;;18.50;;
24547;SDS011;12713;51.624;4.924;2023-11-21T09:07:39;47.25;;;17.13;;
24547;SDS011;12713;51.624;4.924;2023-11-21T09:10:07;36.70;;;16.55;;
24547;SDS011;12713;51.624;4.924;2023-11-21T09:12:37;38.15;;;16.02;;
24547;SDS011;12713;51.624;4.924;2023-11-21T09:15:04;38.65;;;16.60;;
24547;SDS011;12713;51.624;4.924;2023-11-21T09:17:30;36.83;;;14.82;;
24547;SDS011;12713;51.624;4.924;2023-11-21T09:19:56;33.63;;;14.38;;
24547;SDS011;12713;51.624;4.924;2023-11-21T09:22:22;36.00;;;14.70;;
24547;SDS011;12713;51.624;4.924;2023-11-21T09:24:54;32.83;;;14.73;;
24547;SDS011;12713;51.624;4.924;2023-11-21T09:27:22;35.47;;;14.50;;
24547;SDS011;12713;51.624;4.924;2023-11-21T09:29:48;29.77;;;13.98;;
24547;SDS011;12713;51.624;4.924;2023-11-21T09:32:15;32.95;;;13.75;;
24547;SDS011;12713;51.624;4.924;2023-11-21T09:34:41;31.17;;;13.10;;
24547;SDS011;12713;51.624;4.924;2023-11-21T09:37:07;28.08;;;12.82;;
24547;SDS011;12713;51.624;4.924;2023-11-21T09:39:33;29.60;;;12.25;;
24547;SDS011;12713;51.624;4.924;2023-11-21T09:42:04;25.67;;;12.13;;
24547;SDS011;12713;51.624;4.924;2023-11-21T09:44:36;27.25;;;12.27;;
24547;SDS011;12713;51.624;4.924;2023-11-21T09:47:07;31.48;;;12.88;;
24547;SDS011;12713;51.624;4.924;2023-11-21T09:49:35;24.77;;;12.55;;
24547;SDS011;12713;51.624;4.924;2023-11-21T09:52:03;26.30;;;12.82;;
24547;SDS011;12713;51.624;4.924;2023-11-21T09:54:32;28.45;;;14.00;;
24547;SDS011;12713;51.624;4.924;2023-11-21T09:56:59;28.23;;;13.25;;
24547;SDS011;12713;51.624;4.924;2023-11-21T09:59:25;24.30;;;12.90;;
24547;SDS011;12713;51.624;4.924;2023-11-21T10:01:57;28.95;;;12.73;;
24547;SDS011;12713;51.624;4.924;2023-11-21T10:04:23;34.15;;;13.55;;
24547;SDS011;12713;51.624;4.924;2023-11-21T10:06:50;25.98;;;13.18;;
24547;SDS011;12713;51.624;4.924;2023-11-21T10:09:16;25.73;;;13.23;;
24547;SDS011;12713;51.624;4.924;2023-11-21T10:11:42;30.27;;;12.40;;
24547;SDS011;12713;51.624;4.924;2023-11-21T10:14:12;30.90;;;12.88;;
24547;SDS011;12713;51.624;4.924;2023-11-21T10:16:39;32.67;;;12.65;;
24547;SDS011;12713;51.624;4.924;2023-11-21T10:19:08;24.08;;;11.80;;
24547;SDS011;12713;51.624;4.924;2023-11-21T10:21:35;22.20;;;11.65;;
24547;SDS011;12713;51.624;4.924;2023-11-21T10:24:02;24.77;;;12.00;;
24547;SDS011;12713;51.624;4.924;2023-11-21T10:26:28;21.77;;;11.55;;
24547;SDS011;12713;51.624;4.924;2023-11-21T10:28:59;26.65;;;10.43;;
24547;SDS011;12713;51.624;4.924;2023-11-21T10:31:29;27.42;;;11.60;;
24547;SDS011;12713;51.624;4.924;2023-11-21T10:34:11;22.70;;;12.05;;
24547;SDS011;12713;51.624;4.924;2023-11-21T10:36:37;25.67;;;10.85;;
24547;SDS011;12713;51.624;4.924;2023-11-21T10:39:03;19.25;;;10.77;;
24547;SDS011;12713;51.624;4.924;2023-11-21T10:41:29;21.63;;;11.10;;
24547;SDS011;12713;51.624;4.924;2023-11-21T10:43:55;20.50;;;11.65;;
24547;SDS011;12713;51.624;4.924;2023-11-21T10:46:21;24.35;;;12.63;;
24547;SDS011;12713;51.624;4.924;2023-11-21T10:48:52;22.17;;;10.73;;
24547;SDS011;12713;51.624;4.924;2023-11-21T10:51:20;19.23;;;10.57;;
24547;SDS011;12713;51.624;4.924;2023-11-21T10:53:46;19.63;;;11.02;;
24547;SDS011;12713;51.624;4.924;2023-11-21T10:56:15;18.00;;;11.18;;
24547;SDS011;12713;51.624;4.924;2023-11-21T10:58:45;17.88;;;8.88;;
24547;SDS011;12713;51.624;4.924;2023-11-21T11:01:11;14.10;;;8.85;;
24547;SDS011;12713;51.624;4.924;2023-11-21T11:03:39;11.45;;;8.63;;
24547;SDS011;12713;51.624;4.924;2023-11-21T11:06:05;12.25;;;8.10;;
24547;SDS011;12713;51.624;4.924;2023-11-21T11:08:36;13.25;;;7.70;;
24547;SDS011;12713;51.624;4.924;2023-11-21T11:11:03;13.02;;;8.40;;
24547;SDS011;12713;51.624;4.924;2023-11-21T11:13:30;16.75;;;7.63;;
24547;SDS011;12713;51.624;4.924;2023-11-21T11:16:02;11.57;;;7.10;;
24547;SDS011;12713;51.624;4.924;2023-11-21T11:18:32;19.52;;;8.23;;
24547;SDS011;12713;51.624;4.924;2023-11-21T11:21:06;13.88;;;8.50;;
24547;SDS011;12713;51.624;4.924;2023-11-21T11:28:42;15.18;;;8.38;;
24547;SDS011;12713;51.624;4.924;2023-11-21T11:36:27;17.98;;;9.10;;
24547;SDS011;12713;51.624;4.924;2023-11-21T11:38:55;16.35;;;8.95;;
24547;SDS011;12713;51.624;4.924;2023-11-21T11:41:28;16.75;;;9.10;;
24547;SDS011;12713;51.624;4.924;2023-11-21T11:43:57;20.08;;;9.07;;
24547;SDS011;12713;51.624;4.924;2023-11-21T11:46:45;18.13;;;9.45;;
24547;SDS011;12713;51.624;4.924;2023-11-21T11:49:28;18.77;;;9.70;;
24547;SDS011;12713;51.624;4.924;2023-11-21T11:52:31;20.15;;;9.45;;
24547;SDS011;12713;51.624;4.924;2023-11-21T11:54:43;20.20;;;9.77;;
24547;SDS011;12713;51.624;4.924;2023-11-21T11:57:12;21.67;;;9.57;;
24547;SDS011;12713;51.624;4.924;2023-11-21T12:03:09;19.00;;;9.38;;
24547;SDS011;12713;51.624;4.924;2023-11-21T12:08:37;17.25;;;8.68;;
24547;SDS011;12713;51.624;4.924;2023-11-21T12:11:04;14.70;;;7.85;;
24547;SDS011;12713;51.624;4.924;2023-11-21T12:13:30;14.18;;;7.93;;
24547;SDS011;12713;51.624;4.924;2023-11-21T12:15:56;16.17;;;8.02;;
24547;SDS011;12713;51.624;4.924;2023-11-21T12:18:22;19.30;;;7.68;;
24547;SDS011;12713;51.624;4.924;2023-11-21T12:20:51;14.48;;;7.18;;
24547;SDS011;12713;51.624;4.924;2023-11-21T12:23:17;13.63;;;7.57;;
24547;SDS011;12713;51.624;4.924;2023-11-21T12:25:44;14.30;;;7.78;;
24547;SDS011;12713;51.624;4.924;2023-11-21T12:28:10;14.10;;;7.90;;
24547;SDS011;12713;51.624;4.924;2023-11-21T12:30:37;13.90;;;8.32;;
24547;SDS011;12713;51.624;4.924;2023-11-21T12:33:03;15.90;;;8.18;;
24547;SDS011;12713;51.624;4.924;2023-11-21T12:35:34;19.73;;;8.55;;
24547;SDS011;12713;51.624;4.924;2023-11-21T12:38:01;18.58;;;8.35;;
24547;SDS011;12713;51.624;4.924;2023-11-21T12:40:30;18.80;;;8.77;;
24547;SDS011;12713;51.624;4.924;2023-11-21T12:42:57;20.08;;;9.68;;
24547;SDS011;12713;51.624;4.924;2023-11-21T12:45:27;19.13;;;9.75;;
24547;SDS011;12713;51.624;4.924;2023-11-21T12:50:25;20.10;;;10.80;;
24547;SDS011;12713;51.624;4.924;2023-11-21T12:52:58;21.27;;;11.52;;
24547;SDS011;12713;51.624;4.924;2023-11-21T12:55:24;22.58;;;13.27;;
24547;SDS011;12713;51.624;4.924;2023-11-21T12:57:54;25.95;;;14.27;;
24547;SDS011;12713;51.624;4.924;2023-11-21T13:00:27;22.70;;;12.38;;
24547;SDS011;12713;51.624;4.924;2023-11-21T13:02:55;23.77;;;13.60;;
24547;SDS011;12713;51.624;4.924;2023-11-21T13:05:27;19.35;;;12.52;;
24547;SDS011;12713;51.624;4.924;2023-11-21T13:07:57;24.75;;;12.80;;
24547;SDS011;12713;51.624;4.924;2023-11-21T13:10:25;24.15;;;12.55;;
24547;SDS011;12713;51.624;4.924;2023-11-21T13:12:54;20.88;;;11.85;;
24547;SDS011;12713;51.624;4.924;2023-11-21T13:15:23;19.73;;;11.55;;
24547;SDS011;12713;51.624;4.924;2023-11-21T13:17:49;19.50;;;11.55;;
24547;SDS011;12713;51.624;4.924;2023-11-21T13:20:19;24.15;;;11.73;;
24547;SDS011;12713;51.624;4.924;2023-11-21T13:22:46;22.25;;;11.98;;
24547;SDS011;12713;51.624;4.924;2023-11-21T13:25:13;22.08;;;11.43;;
24547;SDS011;12713;51.624;4.924;2023-11-21T13:27:40;18.45;;;10.68;;
24547;SDS011;12713;51.624;4.924;2023-11-21T13:30:08;24.27;;;12.10;;
24547;SDS011;12713;51.624;4.924;2023-11-21T13:32:35;20.05;;;11.05;;
24547;SDS011;12713;51.624;4.924;2023-11-21T13:35:01;21.17;;;10.68;;
24547;SDS011;12713;51.624;4.924;2023-11-21T13:37:27;20.98;;;11.20;;
24547;SDS011;12713;51.624;4.924;2023-11-21T13:39:55;20.55;;;10.18;;
24547;SDS011;12713;51.624;4.924;2023-11-21T13:42:21;21.48;;;10.93;;
24547;SDS011;12713;51.624;4.924;2023-11-21T13:44:55;18.27;;;10.38;;
24547;SDS011;12713;51.624;4.924;2023-11-21T13:47:22;23.73;;;10.88;;
24547;SDS011;12713;51.624;4.924;2023-11-21T13:49:50;25.25;;;11.10;;
24547;SDS011;12713;51.624;4.924;2023-11-21T13:52:16;20.98;;;10.57;;
24547;SDS011;12713;51.624;4.924;2023-11-21T13:54:45;23.90;;;11.18;;
24547;SDS011;12713;51.624;4.924;2023-11-21T13:57:12;25.63;;;12.07;;
24547;SDS011;12713;51.624;4.924;2023-11-21T13:59:38;23.55;;;11.70;;
24547;SDS011;12713;51.624;4.924;2023-11-21T14:02:04;22.15;;;11.40;;
24547;SDS011;12713;51.624;4.924;2023-11-21T14:04:43;17.35;;;10.90;;
24547;SDS011;12713;51.624;4.924;2023-11-21T14:07:25;18.17;;;10.32;;
24547;SDS011;12713;51.624;4.924;2023-11-21T14:09:59;23.80;;;12.35;;
24547;SDS011;12713;51.624;4.924;2023-11-21T14:12:25;22.50;;;10.82;;
24547;SDS011;12713;51.624;4.924;2023-11-21T14:14:52;19.30;;;10.82;;
24547;SDS011;12713;51.624;4.924;2023-11-21T14:17:20;19.83;;;11.23;;
24547;SDS011;12713;51.624;4.924;2023-11-21T14:19:48;23.10;;;12.27;;
24547;SDS011;12713;51.624;4.924;2023-11-21T14:22:14;18.85;;;10.80;;
24547;SDS011;12713;51.624;4.924;2023-11-21T14:24:42;22.27;;;12.73;;
24547;SDS011;12713;51.624;4.924;2023-11-21T14:27:12;25.08;;;12.75;;
24547;SDS011;12713;51.624;4.924;2023-11-21T14:29:38;22.27;;;12.35;;
24547;SDS011;12713;51.624;4.924;2023-11-21T14:32:08;24.83;;;12.05;;
24547;SDS011;12713;51.624;4.924;2023-11-21T14:34:34;26.77;;;12.88;;
24547;SDS011;12713;51.624;4.924;2023-11-21T14:37:01;21.05;;;12.10;;
24547;SDS011;12713;51.624;4.924;2023-11-21T14:39:33;24.60;;;13.48;;
24547;SDS011;12713;51.624;4.924;2023-11-21T14:42:05;21.13;;;12.40;;
24547;SDS011;12713;51.624;4.924;2023-11-21T14:44:32;26.73;;;12.55;;
24547;SDS011;12713;51.624;4.924;2023-11-21T14:47:03;25.92;;;13.55;;
24547;SDS011;12713;51.624;4.924;2023-11-21T14:49:37;24.75;;;14.30;;
24547;SDS011;12713;51.624;4.924;2023-11-21T14:52:17;27.80;;;14.57;;
24547;SDS011;12713;51.624;4.924;2023-11-21T14:55:02;30.67;;;16.42;;
24547;SDS011;12713;51.624;4.924;2023-11-21T14:58:06;29.30;;;15.52;;
24547;SDS011;12713;51.624;4.924;2023-11-21T15:00:37;36.38;;;16.25;;
24547;SDS011;12713;51.624;4.924;2023-11-21T15:03:12;30.48;;;14.43;;
24547;SDS011;12713;51.624;4.924;2023-11-21T15:05:59;32.50;;;16.50;;
24547;SDS011;12713;51.624;4.924;2023-11-21T15:08:43;30.90;;;16.48;;
24547;SDS011;12713;51.624;4.924;2023-11-21T15:11:10;31.95;;;16.75;;
24547;SDS011;12713;51.624;4.924;2023-11-21T15:13:41;32.83;;;17.02;;